RYR6DQ EDJA-LDDU
Flight info
| Callsign | RYR6DQ |
|---|---|
| Flight time | 1h 17m |
| Altitude | 31000 |
| Route | KPT4B KPT Z999 BEMKI L607 ELMEM N606 GIRIS DCT TISAX/N0433F350 DCT NAXAV DCT BADOP DCT PEVAL DCT NAKIT DCT SIPAL |
| Aircraft | B738/M-SDE3FGILRWY/SB1 |
Departure
| Time | 2026-04-26 11:17 |
|---|---|
| Airport | Memmingen Allgau Airport (EDJA) |
Arrival
| Time | 2026-04-26 12:35 |
|---|---|
| Airport | Dubrovnik Ruđer Bošković Airport (LDDU) |
| Time | Latitude | Longitude | Altitude | Speed | Heading |
|---|---|---|---|---|---|
| 2026-04-26 10:58 | 47.98888 | 10.23325 | 2079 ft | 0 kts | 49° |
| 2026-04-26 11:12 | 47.98888 | 10.23326 | 2079 ft | 0 kts | 50° |
| 2026-04-26 11:12 | 47.98892 | 10.23342 | 2079 ft | 2 kts | 76° |
| 2026-04-26 11:13 | 47.98891 | 10.23358 | 2079 ft | 1 kts | 100° |
| 2026-04-26 11:13 | 47.98872 | 10.23370 | 2080 ft | 4 kts | 184° |
| 2026-04-26 11:13 | 47.98844 | 10.23334 | 2080 ft | 9 kts | 239° |
| 2026-04-26 11:13 | 47.98809 | 10.23203 | 2079 ft | 17 kts | 249° |
| 2026-04-26 11:14 | 47.98770 | 10.23041 | 2075 ft | 16 kts | 250° |
| 2026-04-26 11:14 | 47.98714 | 10.22896 | 2074 ft | 16 kts | 248° |
| 2026-04-26 11:14 | 47.98692 | 10.22742 | 2075 ft | 12 kts | 246° |
| 2026-04-26 11:14 | 47.98667 | 10.22716 | 2078 ft | 6 kts | 191° |
| 2026-04-26 11:15 | 47.98577 | 10.22715 | 2080 ft | 14 kts | 180° |
| 2026-04-26 11:15 | 47.98491 | 10.22668 | 2082 ft | 13 kts | 227° |
| 2026-04-26 11:15 | 47.98440 | 10.22555 | 2085 ft | 13 kts | 231° |
| 2026-04-26 11:15 | 47.98369 | 10.22566 | 2087 ft | 11 kts | 150° |
| 2026-04-26 11:16 | 47.98359 | 10.22635 | 2086 ft | 0 kts | 59° |
| 2026-04-26 11:16 | 47.98368 | 10.22658 | 2086 ft | 16 kts | 59° |
| 2026-04-26 11:16 | 47.98555 | 10.23126 | 2079 ft | 89 kts | 59° |
| 2026-04-26 11:16 | 47.98990 | 10.24202 | 2071 ft | 152 kts | 57° |
| 2026-04-26 11:17 | 47.99578 | 10.25674 | 2502 ft | 172 kts | 61° |
| 2026-04-26 11:17 | 48.00188 | 10.27306 | 3217 ft | 184 kts | 59° |
| 2026-04-26 11:17 | 48.00857 | 10.29023 | 3814 ft | 204 kts | 58° |
| 2026-04-26 11:17 | 48.01628 | 10.30955 | 4098 ft | 227 kts | 60° |
| 2026-04-26 11:18 | 48.02420 | 10.33033 | 4703 ft | 234 kts | 58° |
| 2026-04-26 11:18 | 48.03282 | 10.35145 | 5436 ft | 240 kts | 59° |
| 2026-04-26 11:18 | 48.03698 | 10.37533 | 6325 ft | 242 kts | 95° |
| 2026-04-26 11:18 | 48.03156 | 10.39882 | 7165 ft | 244 kts | 126° |
| 2026-04-26 11:19 | 48.01867 | 10.41526 | 7942 ft | 248 kts | 154° |
| 2026-04-26 11:19 | 48.00226 | 10.42376 | 8724 ft | 252 kts | 165° |
| 2026-04-26 11:19 | 47.98497 | 10.42911 | 9497 ft | 257 kts | 179° |
| 2026-04-26 11:19 | 47.97301 | 10.42726 | 9876 ft | 267 kts | 192° |
| 2026-04-26 11:20 | 47.95402 | 10.42078 | 10188 ft | 290 kts | 194° |
| 2026-04-26 11:20 | 47.93398 | 10.41356 | 10681 ft | 306 kts | 194° |
| 2026-04-26 11:20 | 47.91234 | 10.40586 | 10894 ft | 332 kts | 194° |
| 2026-04-26 11:20 | 47.88200 | 10.39537 | 11764 ft | 342 kts | 194° |
| 2026-04-26 11:21 | 47.85871 | 10.38748 | 12583 ft | 344 kts | 194° |
| 2026-04-26 11:21 | 47.84288 | 10.38216 | 13147 ft | 347 kts | 194° |
| 2026-04-26 11:21 | 47.81919 | 10.37426 | 13934 ft | 351 kts | 194° |
| 2026-04-26 11:21 | 47.79525 | 10.36630 | 14651 ft | 354 kts | 194° |
| 2026-04-26 11:22 | 47.77112 | 10.35829 | 15392 ft | 357 kts | 194° |
| 2026-04-26 11:22 | 47.74674 | 10.35022 | 16128 ft | 360 kts | 194° |
| 2026-04-26 11:22 | 47.72202 | 10.34347 | 16856 ft | 363 kts | 190° |
| 2026-04-26 11:22 | 47.69694 | 10.33772 | 17535 ft | 367 kts | 190° |
| 2026-04-26 11:23 | 47.67163 | 10.33215 | 18260 ft | 370 kts | 189° |
| 2026-04-26 11:23 | 47.64605 | 10.32636 | 18908 ft | 372 kts | 191° |
| 2026-04-26 11:23 | 47.62032 | 10.32038 | 19508 ft | 376 kts | 190° |
| 2026-04-26 11:23 | 47.59436 | 10.31430 | 20076 ft | 380 kts | 189° |
| 2026-04-26 11:24 | 47.56813 | 10.31331 | 20611 ft | 388 kts | 173° |
| 2026-04-26 11:24 | 47.54190 | 10.32515 | 21216 ft | 393 kts | 154° |
| 2026-04-26 11:24 | 47.51896 | 10.34750 | 21820 ft | 397 kts | 144° |
| 2026-04-26 11:24 | 47.49690 | 10.37250 | 22354 ft | 402 kts | 144° |
| 2026-04-26 11:25 | 47.47493 | 10.39749 | 22837 ft | 407 kts | 144° |
| 2026-04-26 11:25 | 47.45223 | 10.42286 | 23342 ft | 410 kts | 145° |
| 2026-04-26 11:25 | 47.42895 | 10.44843 | 23883 ft | 414 kts | 145° |
| 2026-04-26 11:25 | 47.40595 | 10.47346 | 24256 ft | 419 kts | 146° |
| 2026-04-26 11:26 | 47.38136 | 10.49664 | 24707 ft | 420 kts | 153° |
| 2026-04-26 11:26 | 47.35542 | 10.51680 | 25201 ft | 422 kts | 154° |
| 2026-04-26 11:26 | 47.32928 | 10.53678 | 25608 ft | 425 kts | 154° |
| 2026-04-26 11:26 | 47.30309 | 10.55725 | 26050 ft | 427 kts | 154° |
| 2026-04-26 11:27 | 47.27689 | 10.57803 | 26541 ft | 428 kts | 154° |
| 2026-04-26 11:27 | 47.25057 | 10.59881 | 26985 ft | 431 kts | 154° |
| 2026-04-26 11:27 | 47.22399 | 10.61966 | 27386 ft | 434 kts | 154° |
| 2026-04-26 11:27 | 47.19722 | 10.64061 | 27757 ft | 437 kts | 154° |
| 2026-04-26 11:28 | 47.17029 | 10.66150 | 28189 ft | 439 kts | 156° |
| 2026-04-26 11:28 | 47.14221 | 10.67909 | 28599 ft | 439 kts | 162° |
| 2026-04-26 11:28 | 47.11339 | 10.69419 | 29019 ft | 441 kts | 163° |
| 2026-04-26 11:28 | 47.08434 | 10.70903 | 29351 ft | 444 kts | 163° |
| 2026-04-26 11:29 | 47.05516 | 10.72441 | 29726 ft | 446 kts | 162° |
| 2026-04-26 11:29 | 47.02593 | 10.74018 | 30083 ft | 449 kts | 162° |
| 2026-04-26 11:29 | 46.99660 | 10.75646 | 30429 ft | 452 kts | 161° |
| 2026-04-26 11:29 | 46.96735 | 10.77312 | 30884 ft | 450 kts | 161° |
| 2026-04-26 11:30 | 46.93827 | 10.78979 | 31380 ft | 447 kts | 161° |
| 2026-04-26 11:30 | 46.91909 | 10.80076 | 31644 ft | 447 kts | 161° |
| 2026-04-26 11:30 | 46.88029 | 10.82283 | 32125 ft | 447 kts | 161° |
| 2026-04-26 11:30 | 46.85131 | 10.83923 | 32564 ft | 445 kts | 161° |
| 2026-04-26 11:31 | 46.82249 | 10.85550 | 33010 ft | 443 kts | 161° |
| 2026-04-26 11:31 | 46.79391 | 10.87222 | 33387 ft | 444 kts | 156° |
| 2026-04-26 11:31 | 46.76696 | 10.89460 | 33699 ft | 447 kts | 147° |
| 2026-04-26 11:31 | 46.74277 | 10.92316 | 34063 ft | 449 kts | 137° |
| 2026-04-26 11:32 | 46.72068 | 10.95526 | 34449 ft | 448 kts | 136° |
| 2026-04-26 11:32 | 46.69886 | 10.98756 | 34813 ft | 446 kts | 136° |
| 2026-04-26 11:32 | 46.67688 | 11.01959 | 35082 ft | 447 kts | 137° |
| 2026-04-26 11:32 | 46.65473 | 11.05126 | 35231 ft | 447 kts | 137° |
| 2026-04-26 11:33 | 46.61004 | 11.11467 | 35211 ft | 448 kts | 137° |
| 2026-04-26 11:33 | 46.56559 | 11.17785 | 35202 ft | 445 kts | 137° |
| 2026-04-26 11:34 | 46.52146 | 11.24056 | 35170 ft | 443 kts | 137° |
| 2026-04-26 11:34 | 46.47752 | 11.30281 | 35080 ft | 441 kts | 137° |
| 2026-04-26 11:35 | 46.43585 | 11.36719 | 35086 ft | 442 kts | 131° |
| 2026-04-26 11:35 | 46.39660 | 11.43589 | 35152 ft | 443 kts | 130° |
| 2026-04-26 11:36 | 46.35735 | 11.50496 | 35147 ft | 445 kts | 131° |
| 2026-04-26 11:36 | 46.31760 | 11.57384 | 35152 ft | 447 kts | 131° |
| 2026-04-26 11:37 | 46.27745 | 11.64271 | 35129 ft | 449 kts | 131° |
| 2026-04-26 11:37 | 46.23711 | 11.71159 | 35128 ft | 449 kts | 131° |
| 2026-04-26 11:38 | 46.19666 | 11.78051 | 35130 ft | 450 kts | 131° |
| 2026-04-26 11:38 | 46.15614 | 11.84940 | 35117 ft | 450 kts | 132° |
| 2026-04-26 11:39 | 46.11562 | 11.91812 | 35114 ft | 449 kts | 132° |
| 2026-04-26 11:39 | 46.07521 | 11.98648 | 35111 ft | 447 kts | 132° |
| 2026-04-26 11:40 | 46.03488 | 12.05455 | 35116 ft | 446 kts | 132° |
| 2026-04-26 11:40 | 45.99462 | 12.12232 | 35104 ft | 445 kts | 132° |
| 2026-04-26 11:42 | 45.83373 | 12.39154 | 35103 ft | 443 kts | 132° |
| 2026-04-26 11:43 | 45.79346 | 12.45850 | 35104 ft | 444 kts | 132° |
| 2026-04-26 11:43 | 45.75309 | 12.52550 | 35101 ft | 445 kts | 132° |
| 2026-04-26 11:44 | 45.71260 | 12.59251 | 35102 ft | 445 kts | 132° |
| 2026-04-26 11:44 | 45.67201 | 12.65955 | 35099 ft | 446 kts | 132° |
| 2026-04-26 11:45 | 45.63129 | 12.72663 | 35102 ft | 447 kts | 132° |
| 2026-04-26 11:45 | 45.59050 | 12.79367 | 35103 ft | 447 kts | 132° |
| 2026-04-26 11:46 | 45.54963 | 12.86070 | 35103 ft | 448 kts | 132° |
| 2026-04-26 11:46 | 45.50897 | 12.92725 | 35112 ft | 448 kts | 132° |
| 2026-04-26 11:47 | 45.46797 | 12.99418 | 35107 ft | 448 kts | 132° |
| 2026-04-26 11:47 | 45.42681 | 13.06096 | 35110 ft | 449 kts | 132° |
| 2026-04-26 11:48 | 45.38557 | 13.12760 | 35104 ft | 448 kts | 132° |
| 2026-04-26 11:48 | 45.34436 | 13.19417 | 35106 ft | 448 kts | 132° |
| 2026-04-26 11:49 | 45.30312 | 13.26063 | 35109 ft | 448 kts | 132° |
| 2026-04-26 11:49 | 45.26211 | 13.32738 | 35105 ft | 448 kts | 132° |
| 2026-04-26 11:50 | 45.22120 | 13.39406 | 35100 ft | 448 kts | 132° |
| 2026-04-26 11:50 | 45.18049 | 13.46097 | 35100 ft | 448 kts | 129° |
| 2026-04-26 11:51 | 45.14257 | 13.53112 | 35101 ft | 448 kts | 127° |
| 2026-04-26 11:51 | 45.10538 | 13.60195 | 35099 ft | 448 kts | 127° |
| 2026-04-26 11:52 | 45.07433 | 13.66071 | 35104 ft | 448 kts | 127° |
| 2026-04-26 11:52 | 45.03039 | 13.74305 | 35093 ft | 449 kts | 128° |
| 2026-04-26 11:53 | 44.99262 | 13.81342 | 35103 ft | 449 kts | 128° |
| 2026-04-26 11:54 | 44.93580 | 13.91888 | 35103 ft | 450 kts | 128° |
| 2026-04-26 11:54 | 44.89784 | 13.98914 | 35100 ft | 450 kts | 128° |
| 2026-04-26 11:55 | 44.85985 | 14.05929 | 35101 ft | 450 kts | 128° |
| 2026-04-26 11:55 | 44.82182 | 14.12936 | 35090 ft | 450 kts | 128° |
| 2026-04-26 11:56 | 44.78377 | 14.19927 | 35096 ft | 450 kts | 128° |
| 2026-04-26 11:56 | 44.74592 | 14.26865 | 35098 ft | 450 kts | 128° |
| 2026-04-26 11:57 | 44.70779 | 14.33837 | 35102 ft | 450 kts | 128° |
| 2026-04-26 11:57 | 44.66963 | 14.40799 | 35100 ft | 450 kts | 128° |
| 2026-04-26 11:58 | 44.63140 | 14.47756 | 35103 ft | 450 kts | 128° |
| 2026-04-26 11:58 | 44.59313 | 14.54703 | 35101 ft | 450 kts | 128° |
| 2026-04-26 11:59 | 44.55481 | 14.61643 | 35101 ft | 450 kts | 128° |
| 2026-04-26 11:59 | 44.51646 | 14.68572 | 35096 ft | 450 kts | 128° |
| 2026-04-26 12:00 | 44.47806 | 14.75493 | 35097 ft | 450 kts | 128° |
| 2026-04-26 12:00 | 44.43964 | 14.82402 | 35100 ft | 450 kts | 128° |
| 2026-04-26 12:01 | 44.40116 | 14.89302 | 35091 ft | 450 kts | 128° |
| 2026-04-26 12:01 | 44.36264 | 14.96195 | 35096 ft | 450 kts | 128° |
| 2026-04-26 12:02 | 44.32407 | 15.03081 | 35095 ft | 450 kts | 128° |
| 2026-04-26 12:02 | 44.28544 | 15.09961 | 35105 ft | 450 kts | 128° |
| 2026-04-26 12:03 | 44.24673 | 15.16837 | 35103 ft | 451 kts | 128° |
| 2026-04-26 12:03 | 44.20796 | 15.23710 | 35100 ft | 451 kts | 128° |
| 2026-04-26 12:04 | 44.16918 | 15.30568 | 35104 ft | 450 kts | 128° |
| 2026-04-26 12:04 | 44.13040 | 15.37409 | 35098 ft | 450 kts | 128° |
| 2026-04-26 12:05 | 44.09156 | 15.44244 | 35109 ft | 450 kts | 128° |
| 2026-04-26 12:05 | 44.05285 | 15.51041 | 35074 ft | 442 kts | 128° |
| 2026-04-26 12:05 | 44.03386 | 15.54368 | 34770 ft | 437 kts | 128° |
| 2026-04-26 12:06 | 44.01515 | 15.57645 | 34485 ft | 430 kts | 129° |
| 2026-04-26 12:06 | 43.99682 | 15.60851 | 34121 ft | 428 kts | 129° |
| 2026-04-26 12:06 | 43.97838 | 15.64072 | 33718 ft | 425 kts | 129° |
| 2026-04-26 12:06 | 43.96004 | 15.67273 | 33324 ft | 422 kts | 128° |
| 2026-04-26 12:07 | 43.94183 | 15.70446 | 32955 ft | 419 kts | 128° |
| 2026-04-26 12:07 | 43.92376 | 15.73591 | 32585 ft | 416 kts | 128° |
| 2026-04-26 12:07 | 43.90579 | 15.76716 | 32223 ft | 413 kts | 128° |
| 2026-04-26 12:07 | 43.88794 | 15.79816 | 31860 ft | 410 kts | 129° |
| 2026-04-26 12:08 | 43.87021 | 15.82894 | 31507 ft | 407 kts | 129° |
| 2026-04-26 12:08 | 43.85261 | 15.85945 | 31164 ft | 404 kts | 128° |
| 2026-04-26 12:08 | 43.83508 | 15.88980 | 30820 ft | 402 kts | 128° |
| 2026-04-26 12:08 | 43.82329 | 15.91019 | 30592 ft | 400 kts | 128° |
| 2026-04-26 12:09 | 43.80592 | 15.94022 | 30252 ft | 398 kts | 128° |
| 2026-04-26 12:09 | 43.78888 | 15.96965 | 29867 ft | 396 kts | 128° |
| 2026-04-26 12:09 | 43.77146 | 15.99971 | 29478 ft | 394 kts | 128° |
| 2026-04-26 12:09 | 43.75462 | 16.02873 | 29129 ft | 390 kts | 128° |
| 2026-04-26 12:10 | 43.73772 | 16.05783 | 28761 ft | 387 kts | 128° |
| 2026-04-26 12:10 | 43.72069 | 16.08711 | 28417 ft | 384 kts | 128° |
| 2026-04-26 12:10 | 43.70425 | 16.11537 | 28058 ft | 381 kts | 128° |
| 2026-04-26 12:10 | 43.68769 | 16.14379 | 27710 ft | 378 kts | 128° |
| 2026-04-26 12:11 | 43.67126 | 16.17198 | 27359 ft | 375 kts | 128° |
| 2026-04-26 12:11 | 43.65494 | 16.19994 | 27021 ft | 373 kts | 128° |
| 2026-04-26 12:11 | 43.63871 | 16.22771 | 26676 ft | 371 kts | 128° |
| 2026-04-26 12:11 | 43.62257 | 16.25532 | 26344 ft | 368 kts | 128° |
| 2026-04-26 12:12 | 43.60651 | 16.28275 | 26007 ft | 366 kts | 128° |
| 2026-04-26 12:12 | 43.59054 | 16.31002 | 25673 ft | 364 kts | 128° |
| 2026-04-26 12:12 | 43.57465 | 16.33711 | 25349 ft | 362 kts | 128° |
| 2026-04-26 12:12 | 43.56418 | 16.35497 | 25126 ft | 362 kts | 128° |
| 2026-04-26 12:13 | 43.54306 | 16.39091 | 24686 ft | 359 kts | 128° |
| 2026-04-26 12:13 | 43.52736 | 16.41760 | 24353 ft | 357 kts | 127° |
| 2026-04-26 12:13 | 43.51175 | 16.44413 | 24037 ft | 356 kts | 128° |
| 2026-04-26 12:13 | 43.49618 | 16.47057 | 23705 ft | 354 kts | 128° |
| 2026-04-26 12:14 | 43.48068 | 16.49686 | 23322 ft | 353 kts | 128° |
| 2026-04-26 12:14 | 43.46526 | 16.52298 | 22962 ft | 350 kts | 127° |
| 2026-04-26 12:14 | 43.44996 | 16.54889 | 22639 ft | 347 kts | 128° |
| 2026-04-26 12:14 | 43.43479 | 16.57454 | 22299 ft | 344 kts | 127° |
| 2026-04-26 12:15 | 43.41972 | 16.60000 | 21969 ft | 342 kts | 128° |
| 2026-04-26 12:15 | 43.40478 | 16.62523 | 21649 ft | 339 kts | 127° |
| 2026-04-26 12:15 | 43.38993 | 16.65029 | 21327 ft | 337 kts | 128° |
| 2026-04-26 12:15 | 43.37519 | 16.67513 | 21015 ft | 334 kts | 128° |
| 2026-04-26 12:16 | 43.36072 | 16.69952 | 20705 ft | 333 kts | 128° |
| 2026-04-26 12:16 | 43.34614 | 16.72405 | 20405 ft | 331 kts | 128° |
| 2026-04-26 12:16 | 43.33160 | 16.74851 | 20087 ft | 330 kts | 128° |
| 2026-04-26 12:16 | 43.31711 | 16.77285 | 19772 ft | 328 kts | 128° |
| 2026-04-26 12:17 | 43.30268 | 16.79708 | 19463 ft | 327 kts | 128° |
| 2026-04-26 12:17 | 43.28830 | 16.82120 | 19161 ft | 326 kts | 129° |
| 2026-04-26 12:17 | 43.27395 | 16.84525 | 18850 ft | 325 kts | 128° |
| 2026-04-26 12:17 | 43.25963 | 16.86924 | 18532 ft | 325 kts | 128° |
| 2026-04-26 12:18 | 43.24535 | 16.89315 | 18199 ft | 323 kts | 128° |
| 2026-04-26 12:18 | 43.23111 | 16.91696 | 17855 ft | 322 kts | 128° |
| 2026-04-26 12:18 | 43.21693 | 16.94066 | 17526 ft | 320 kts | 129° |
| 2026-04-26 12:18 | 43.20285 | 16.96418 | 17208 ft | 318 kts | 128° |
| 2026-04-26 12:19 | 43.18885 | 16.98755 | 16897 ft | 316 kts | 129° |
| 2026-04-26 12:19 | 43.17496 | 17.01072 | 16592 ft | 314 kts | 129° |
| 2026-04-26 12:19 | 43.16111 | 17.03379 | 16287 ft | 312 kts | 129° |
| 2026-04-26 12:19 | 43.14732 | 17.05672 | 15978 ft | 311 kts | 128° |
| 2026-04-26 12:20 | 43.13371 | 17.07960 | 15678 ft | 309 kts | 126° |
| 2026-04-26 12:20 | 43.12156 | 17.10377 | 15380 ft | 308 kts | 122° |
| 2026-04-26 12:20 | 43.11010 | 17.12851 | 15044 ft | 308 kts | 121° |
| 2026-04-26 12:20 | 43.09874 | 17.15323 | 14762 ft | 306 kts | 121° |
| 2026-04-26 12:21 | 43.08734 | 17.17780 | 14456 ft | 305 kts | 122° |
| 2026-04-26 12:21 | 43.07591 | 17.20220 | 14166 ft | 304 kts | 121° |
| 2026-04-26 12:21 | 43.06444 | 17.22649 | 13863 ft | 304 kts | 122° |
| 2026-04-26 12:21 | 43.05298 | 17.25068 | 13531 ft | 303 kts | 122° |
| 2026-04-26 12:22 | 43.04150 | 17.27479 | 13213 ft | 302 kts | 122° |
| 2026-04-26 12:22 | 43.03011 | 17.29867 | 12904 ft | 300 kts | 122° |
| 2026-04-26 12:22 | 43.01871 | 17.32252 | 12598 ft | 298 kts | 122° |
| 2026-04-26 12:22 | 43.00741 | 17.34621 | 12302 ft | 297 kts | 121° |
| 2026-04-26 12:23 | 42.99618 | 17.36975 | 12005 ft | 295 kts | 121° |
| 2026-04-26 12:23 | 42.98502 | 17.39318 | 11715 ft | 294 kts | 121° |
| 2026-04-26 12:23 | 42.97391 | 17.41649 | 11421 ft | 292 kts | 122° |
| 2026-04-26 12:23 | 42.96284 | 17.43971 | 11125 ft | 291 kts | 121° |
| 2026-04-26 12:24 | 42.95184 | 17.46276 | 10843 ft | 289 kts | 122° |
| 2026-04-26 12:24 | 42.94088 | 17.48570 | 10552 ft | 288 kts | 121° |
| 2026-04-26 12:24 | 42.92995 | 17.50853 | 10274 ft | 287 kts | 121° |
| 2026-04-26 12:25 | 42.90842 | 17.55347 | 9746 ft | 283 kts | 121° |
| 2026-04-26 12:25 | 42.89769 | 17.57584 | 9450 ft | 282 kts | 122° |
| 2026-04-26 12:25 | 42.88711 | 17.59788 | 9151 ft | 281 kts | 120° |
| 2026-04-26 12:25 | 42.87626 | 17.62048 | 8866 ft | 281 kts | 120° |
| 2026-04-26 12:26 | 42.86570 | 17.64248 | 8568 ft | 281 kts | 121° |
| 2026-04-26 12:26 | 42.85500 | 17.66472 | 8285 ft | 280 kts | 121° |
| 2026-04-26 12:26 | 42.84432 | 17.68683 | 7966 ft | 278 kts | 121° |
| 2026-04-26 12:26 | 42.83376 | 17.70885 | 7672 ft | 278 kts | 122° |
| 2026-04-26 12:27 | 42.82313 | 17.73088 | 7343 ft | 279 kts | 122° |
| 2026-04-26 12:27 | 42.81254 | 17.75281 | 7002 ft | 275 kts | 121° |
| 2026-04-26 12:27 | 42.80207 | 17.77437 | 6684 ft | 271 kts | 121° |
| 2026-04-26 12:27 | 42.79180 | 17.79567 | 6370 ft | 268 kts | 121° |
| 2026-04-26 12:28 | 42.78161 | 17.81675 | 6033 ft | 264 kts | 121° |
| 2026-04-26 12:28 | 42.77161 | 17.83741 | 5803 ft | 260 kts | 122° |
| 2026-04-26 12:28 | 42.76163 | 17.85801 | 5578 ft | 262 kts | 121° |
| 2026-04-26 12:28 | 42.75119 | 17.87834 | 5358 ft | 264 kts | 131° |
| 2026-04-26 12:29 | 42.73643 | 17.89337 | 5139 ft | 267 kts | 147° |
| 2026-04-26 12:29 | 42.72063 | 17.90669 | 4925 ft | 268 kts | 147° |
| 2026-04-26 12:29 | 42.69154 | 17.93752 | 4419 ft | 265 kts | 119° |
| 2026-04-26 12:30 | 42.68378 | 17.95993 | 4231 ft | 262 kts | 116° |
| 2026-04-26 12:30 | 42.67528 | 17.98181 | 4008 ft | 261 kts | 118° |
| 2026-04-26 12:30 | 42.66653 | 18.00330 | 3779 ft | 259 kts | 118° |
| 2026-04-26 12:31 | 42.64957 | 18.04568 | 3430 ft | 250 kts | 118° |
| 2026-04-26 12:31 | 42.64156 | 18.06586 | 3401 ft | 236 kts | 118° |
| 2026-04-26 12:31 | 42.63392 | 18.08512 | 3177 ft | 227 kts | 118° |
| 2026-04-26 12:31 | 42.62660 | 18.10354 | 2890 ft | 217 kts | 118° |
| 2026-04-26 12:32 | 42.61964 | 18.12108 | 2595 ft | 205 kts | 119° |
| 2026-04-26 12:32 | 42.61312 | 18.13754 | 2346 ft | 191 kts | 119° |
| 2026-04-26 12:32 | 42.60130 | 18.16736 | 1883 ft | 166 kts | 120° |
| 2026-04-26 12:33 | 42.59593 | 18.18091 | 1657 ft | 164 kts | 121° |
| 2026-04-26 12:33 | 42.59062 | 18.19431 | 1463 ft | 160 kts | 120° |
| 2026-04-26 12:33 | 42.58536 | 18.20749 | 1237 ft | 157 kts | 120° |
| 2026-04-26 12:33 | 42.58030 | 18.22034 | 1044 ft | 153 kts | 121° |
| 2026-04-26 12:34 | 42.57535 | 18.23300 | 836 ft | 150 kts | 122° |
| 2026-04-26 12:34 | 42.57045 | 18.24529 | 610 ft | 146 kts | 122° |
| 2026-04-26 12:34 | 42.56591 | 18.25673 | 535 ft | 124 kts | 119° |
| 2026-04-26 12:34 | 42.56262 | 18.26509 | 532 ft | 80 kts | 118° |
| 2026-04-26 12:35 | 42.56068 | 18.27001 | 533 ft | 45 kts | 118° |
| 2026-04-26 12:35 | 42.55936 | 18.27301 | 531 ft | 25 kts | 141° |
| 2026-04-26 12:35 | 42.55795 | 18.27343 | 532 ft | 15 kts | 178° |
| 2026-04-26 12:35 | 42.55773 | 18.27260 | 533 ft | 11 kts | 292° |
| 2026-04-26 12:36 | 42.55812 | 18.27173 | 533 ft | 11 kts | 298° |
| 2026-04-26 12:36 | 42.55846 | 18.27085 | 533 ft | 10 kts | 298° |
| 2026-04-26 12:36 | 42.55879 | 18.27000 | 533 ft | 10 kts | 298° |
| 2026-04-26 12:36 | 42.55917 | 18.26905 | 533 ft | 13 kts | 298° |
| 2026-04-26 12:37 | 42.55959 | 18.26797 | 533 ft | 13 kts | 298° |
| 2026-04-26 12:37 | 42.56001 | 18.26690 | 533 ft | 13 kts | 298° |
| 2026-04-26 12:37 | 42.56042 | 18.26587 | 533 ft | 12 kts | 299° |
| 2026-04-26 12:37 | 42.56083 | 18.26487 | 533 ft | 12 kts | 298° |
| 2026-04-26 12:38 | 42.56122 | 18.26389 | 533 ft | 12 kts | 298° |
| 2026-04-26 12:38 | 42.56165 | 18.26280 | 533 ft | 14 kts | 298° |
| 2026-04-26 12:38 | 42.56187 | 18.26192 | 533 ft | 7 kts | 245° |
| 2026-04-26 12:38 | 42.56152 | 18.26158 | 533 ft | 4 kts | 209° |
| 2026-04-26 12:39 | 42.56151 | 18.26157 | 533 ft | 0 kts | 209° |